Time;durP1;ratioP1;P1;durP2;ratioP2;P2;SDS_P1;SDS_P2;PMS_P1;PMS_P2;Temp;Humidity;BMP_temperature;BMP_pressure;BME280_temperature;BME280_humidity;BME280_pressure;Samples;Min_cycle;Max_cycle;Signal;HPM_P1;HPM_P2
2021/07/22 00:00:39;;;;;;;14.70;9.57;;;;;;;18.17;100.00;101330.41;5121435;28;20023;-78
2021/07/22 00:03:10;;;;;;;13.23;9.68;;;;;;;18.29;100.00;101326.25;5123368;28;20398;-77
2021/07/22 00:05:40;;;;;;;13.07;9.50;;;;;;;18.26;100.00;101326.41;5119535;29;20094;-75
2021/07/22 00:08:13;;;;;;;16.67;10.13;;;;;;;18.12;100.00;101336.88;5126257;28;20166;-76
2021/07/22 00:10:43;;;;;;;14.23;9.68;;;;;;;17.99;100.00;101333.22;5128946;28;20031;-76
2021/07/22 00:13:14;;;;;;;15.77;9.40;;;;;;;17.87;100.00;101333.84;5120423;28;20038;-77
2021/07/22 00:15:44;;;;;;;15.25;9.05;;;;;;;17.89;100.00;101329.34;5124582;28;20311;-77
2021/07/22 00:18:14;;;;;;;13.65;9.32;;;;;;;17.98;100.00;101328.84;5122882;28;20027;-76
2021/07/22 00:20:44;;;;;;;11.97;9.27;;;;;;;18.14;100.00;101329.75;5122011;28;20490;-77
2021/07/22 00:23:15;;;;;;;16.40;9.30;;;;;;;18.22;100.00;101322.22;5122801;28;20669;-77
2021/07/22 00:25:45;;;;;;;15.40;10.07;;;;;;;18.03;100.00;101321.53;5123479;28;20282;-76
2021/07/22 00:28:16;;;;;;;18.23;10.05;;;;;;;18.01;100.00;101328.69;5123037;28;20035;-78
2021/07/22 00:30:46;;;;;;;15.20;10.07;;;;;;;17.81;100.00;101327.09;5121754;29;20065;-75
2021/07/22 00:33:16;;;;;;;16.30;10.27;;;;;;;17.71;100.00;101332.97;5122434;29;20557;-77
2021/07/22 00:35:46;;;;;;;13.07;9.57;;;;;;;17.88;100.00;101327.63;5123597;28;20045;-77
2021/07/22 00:38:17;;;;;;;12.52;9.55;;;;;;;18.02;100.00;101335.69;5126569;28;20289;-75
2021/07/22 00:40:47;;;;;;;14.63;9.67;;;;;;;18.05;100.00;101324.94;5129633;28;20470;-77
2021/07/22 00:43:17;;;;;;;17.25;10.40;;;;;;;17.88;100.00;101323.22;5126361;28;20639;-77
2021/07/22 00:45:48;;;;;;;15.43;9.60;;;;;;;18.22;100.00;101319.56;5128569;28;20066;-77
2021/07/22 00:48:18;;;;;;;12.30;9.27;;;;;;;18.24;100.00;101315.03;5113348;28;20601;-77
2021/07/22 00:50:48;;;;;;;13.93;9.57;;;;;;;18.12;100.00;101310.41;5121600;28;20322;-78
2021/07/22 00:53:18;;;;;;;14.68;9.52;;;;;;;18.13;100.00;101313.00;5121311;29;20027;-78
2021/07/22 00:55:49;;;;;;;12.07;9.00;;;;;;;18.07;100.00;101315.13;5122397;28;20454;-76
2021/07/22 00:58:19;;;;;;;18.13;9.80;;;;;;;17.90;100.00;101316.03;5122483;29;20301;-77
2021/07/22 01:00:49;;;;;;;17.50;9.47;;;;;;;17.83;100.00;101317.28;5122518;28;20275;-76
2021/07/22 01:03:20;;;;;;;12.70;9.30;;;;;;;17.84;100.00;101312.88;5121335;29;20341;-75
2021/07/22 01:05:50;;;;;;;16.85;9.63;;;;;;;17.85;100.00;101314.56;5122224;28;20285;-77
2021/07/22 01:08:21;;;;;;;16.05;9.88;;;;;;;17.67;100.00;101315.56;5123153;28;20023;-77
2021/07/22 01:10:51;;;;;;;14.88;9.43;;;;;;;17.69;100.00;101316.31;5128907;28;20504;-76
2021/07/22 01:13:21;;;;;;;16.85;9.77;;;;;;;17.72;100.00;101318.78;5124058;28;20109;-75
2021/07/22 01:15:52;;;;;;;16.90;9.82;;;;;;;17.64;100.00;101318.38;5129052;28;20028;-77
2021/07/22 01:18:22;;;;;;;13.05;9.30;;;;;;;17.75;100.00;101308.94;5120402;28;20093;-77
2021/07/22 01:20:52;;;;;;;16.27;9.17;;;;;;;17.74;100.00;101311.63;5120285;28;20027;-76
2021/07/22 01:23:22;;;;;;;14.75;9.32;;;;;;;17.68;100.00;101319.91;5123934;28;20615;-77
2021/07/22 01:25:53;;;;;;;19.13;9.07;;;;;;;17.61;100.00;101313.22;5121632;28;20042;-77
2021/07/22 01:28:23;;;;;;;13.00;8.88;;;;;;;17.59;100.00;101312.44;5122029;28;20569;-78
2021/07/22 01:30:53;;;;;;;16.77;9.40;;;;;;;17.49;100.00;101313.88;5122655;28;20031;-75
2021/07/22 01:33:23;;;;;;;16.55;9.27;;;;;;;17.37;100.00;101314.50;5122013;28;20777;-78
2021/07/22 01:35:54;;;;;;;13.30;9.43;;;;;;;17.33;100.00;101312.94;5120869;29;20027;-78
2021/07/22 01:38:24;;;;;;;14.80;9.75;;;;;;;17.33;100.00;101310.28;5124993;28;20274;-76
2021/07/22 01:40:54;;;;;;;13.23;9.23;;;;;;;17.31;100.00;101313.00;5128955;28;20386;-77
2021/07/22 01:43:25;;;;;;;16.63;9.10;;;;;;;17.38;100.00;101308.28;5125986;28;20050;-75
2021/07/22 01:45:55;;;;;;;13.05;8.95;;;;;;;17.54;100.00;101312.72;5128616;28;20031;-76
2021/07/22 01:48:25;;;;;;;15.00;9.87;;;;;;;17.47;100.00;101302.53;5125426;28;20037;-77
2021/07/22 01:50:55;;;;;;;15.90;9.23;;;;;;;17.48;100.00;101299.78;5120640;29;20394;-77
2021/07/22 01:53:26;;;;;;;13.00;8.63;;;;;;;17.64;100.00;101303.34;5122593;28;20283;-78
2021/07/22 01:55:56;;;;;;;13.83;9.47;;;;;;;17.54;100.00;101295.97;5122635;28;20289;-78
2021/07/22 01:58:26;;;;;;;13.20;8.93;;;;;;;17.67;100.00;101291.75;5124450;28;20354;-78
2021/07/22 02:00:56;;;;;;;16.53;9.47;;;;;;;17.53;100.00;101299.56;5125167;28;20434;-77
2021/07/22 02:03:27;;;;;;;17.45;9.77;;;;;;;17.31;100.00;101288.38;5123343;28;20653;-77
2021/07/22 02:05:57;;;;;;;11.48;9.13;;;;;;;17.42;100.00;101281.63;5125038;28;20030;-77
2021/07/22 02:08:27;;;;;;;16.92;9.80;;;;;;;17.32;100.00;101287.44;5128105;28;20390;-76
2021/07/22 02:10:57;;;;;;;14.77;9.77;;;;;;;17.28;100.00;101284.09;5130952;28;20039;-76
2021/07/22 02:13:28;;;;;;;14.47;8.67;;;;;;;17.41;100.00;101285.19;5127636;28;20278;-76
2021/07/22 02:15:58;;;;;;;14.82;9.38;;;;;;;17.28;100.00;101281.44;5131284;28;20645;-77
2021/07/22 02:18:28;;;;;;;17.40;9.25;;;;;;;17.26;100.00;101280.66;5125875;28;20058;-78
2021/07/22 02:21:04;;;;;;;13.23;9.37;;;;;;;17.21;100.00;101281.84;5123738;28;20027;-78
2021/07/22 02:23:34;;;;;;;;;;;;;;;17.27;100.00;101279.72;5128820;28;20645;-78
2021/07/22 02:26:06;;;;;;;15.77;9.38;;;;;;;17.06;100.00;101272.91;5126676;29;19915;-78
2021/07/22 02:28:37;;;;;;;16.40;9.52;;;;;;;17.15;100.00;101283.00;5127809;28;20117;-78
2021/07/22 02:31:08;;;;;;;16.67;10.02;;;;;;;17.18;100.00;101282.00;5126032;29;20119;-78
2021/07/22 02:33:38;;;;;;;18.80;10.23;;;;;;;17.37;100.00;101298.63;5126547;28;20031;-75
2021/07/22 02:36:08;;;;;;;13.80;9.73;;;;;;;17.30;100.00;101292.78;5125889;29;20046;-77
2021/07/22 02:38:39;;;;;;;17.00;9.70;;;;;;;17.42;100.00;101288.69;5130712;28;20097;-78
2021/07/22 02:41:09;;;;;;;15.85;10.15;;;;;;;17.48;100.00;101291.84;5133670;28;20029;-77
2021/07/22 02:43:40;;;;;;;12.98;9.23;;;;;;;17.53;100.00;101294.28;5131397;28;20031;-77
2021/07/22 02:46:11;;;;;;;18.05;9.98;;;;;;;17.40;100.00;101301.13;5133424;28;20117;-76
2021/07/22 02:48:41;;;;;;;17.80;10.52;;;;;;;17.32;100.00;101296.19;5127566;28;20038;-78
2021/07/22 02:51:12;;;;;;;16.00;10.33;;;;;;;17.22;100.00;101294.97;5126097;29;20471;-78
2021/07/22 02:53:42;;;;;;;17.92;9.98;;;;;;;17.32;100.00;101301.47;5128132;28;20298;-78
2021/07/22 02:56:12;;;;;;;17.10;10.65;;;;;;;17.36;100.00;101296.94;5126978;29;20039;-77
2021/07/22 02:58:42;;;;;;;16.43;10.30;;;;;;;17.31;100.00;101293.66;5125402;28;20367;-77
2021/07/22 03:01:13;;;;;;;17.50;10.93;;;;;;;17.21;100.00;101306.47;5127217;28;20291;-76
2021/07/22 03:03:43;;;;;;;19.88;10.48;;;;;;;17.26;100.00;101308.88;5128467;28;20038;-75
2021/07/22 03:06:15;;;;;;;20.35;10.40;;;;;;;17.21;100.00;101305.63;5126831;29;20023;-77
2021/07/22 03:08:45;;;;;;;17.30;10.15;;;;;;;17.41;100.00;101301.06;5130478;28;20030;-75
2021/07/22 03:11:16;;;;;;;15.60;9.90;;;;;;;17.62;100.00;101299.09;5133097;28;20031;-75
2021/07/22 03:13:46;;;;;;;16.13;9.80;;;;;;;17.58;100.00;101303.66;5130323;28;20030;-78
2021/07/22 03:16:16;;;;;;;17.37;9.90;;;;;;;17.47;100.00;101295.44;5133897;28;20244;-78
2021/07/22 03:18:46;;;;;;;15.48;9.82;;;;;;;17.37;100.00;101298.63;5125787;28;20271;-78
2021/07/22 03:21:17;;;;;;;16.33;9.80;;;;;;;17.28;100.00;101304.38;5127698;28;20023;-78
2021/07/22 03:23:47;;;;;;;15.37;9.97;;;;;;;17.24;100.00;101300.16;5126858;28;20035;-78
2021/07/22 03:26:20;;;;;;;16.63;9.40;;;;;;;17.26;100.00;101309.72;5125795;29;20369;-76
2021/07/22 03:28:50;;;;;;;17.33;9.55;;;;;;;17.23;100.00;101299.34;5125414;29;20094;-76
2021/07/22 03:31:21;;;;;;;15.40;9.93;;;;;;;17.17;100.00;101296.13;5125820;28;20055;-78
2021/07/22 03:33:51;;;;;;;15.18;9.32;;;;;;;17.15;100.00;101292.72;5125515;29;20039;-76
2021/07/22 03:36:22;;;;;;;13.27;9.20;;;;;;;17.25;100.00;101293.94;5125684;29;20042;-77
2021/07/22 03:38:52;;;;;;;14.48;9.38;;;;;;;17.25;100.00;101294.81;5129621;28;20278;-77
2021/07/22 03:41:25;;;;;;;14.82;9.52;;;;;;;17.17;100.00;101302.25;5132593;28;20023;-78
2021/07/22 03:43:55;;;;;;;17.70;9.85;;;;;;;17.13;100.00;101295.44;5129836;28;20027;-78
2021/07/22 03:46:25;;;;;;;15.33;9.57;;;;;;;17.29;100.00;101290.25;5131658;28;20509;-78
2021/07/22 03:48:55;;;;;;;14.13;9.60;;;;;;;17.20;100.00;101291.56;5125396;28;20382;-78
2021/07/22 03:51:26;;;;;;;16.47;9.33;;;;;;;17.15;100.00;101290.09;5121398;28;20027;-78
2021/07/22 03:53:56;;;;;;;16.03;9.67;;;;;;;17.08;100.00;101292.19;5122734;29;20267;-78
2021/07/22 03:56:27;;;;;;;15.43;10.07;;;;;;;17.15;100.00;101293.56;5123133;28;20272;-78
2021/07/22 03:58:57;;;;;;;15.18;9.80;;;;;;;17.08;100.00;101293.94;5123774;28;20137;-76
2021/07/22 04:01:27;;;;;;;15.65;9.43;;;;;;;17.03;100.00;101290.69;5122179;28;20103;-78
2021/07/22 04:03:58;;;;;;;12.13;8.80;;;;;;;17.12;100.00;101298.19;5123072;29;20030;-78
2021/07/22 04:06:28;;;;;;;18.00;10.23;;;;;;;17.15;100.00;101303.28;5123238;28;20036;-78
2021/07/22 04:08:58;;;;;;;17.08;9.82;;;;;;;17.10;100.00;101290.31;5130400;28;20026;-79
2021/07/22 04:11:28;;;;;;;16.58;10.25;;;;;;;17.13;100.00;101294.59;5121357;28;20038;-78
2021/07/22 04:13:59;;;;;;;14.38;9.80;;;;;;;17.07;100.00;101289.59;5122958;28;20554;-78
2021/07/22 04:16:29;;;;;;;19.52;10.68;;;;;;;17.02;100.00;101294.28;5126753;28;20035;-78
2021/07/22 04:18:59;;;;;;;16.87;9.97;;;;;;;17.02;100.00;101299.56;5126024;28;20034;-77
2021/07/22 04:21:30;;;;;;;16.50;10.30;;;;;;;17.19;100.00;101300.44;5124896;29;20762;-76
2021/07/22 04:24:00;;;;;;;15.45;9.77;;;;;;;17.28;100.00;101297.28;5127887;28;20289;-78
2021/07/22 04:26:31;;;;;;;16.15;10.55;;;;;;;17.26;100.00;101291.25;5128108;28;20039;-79
2021/07/22 04:29:01;;;;;;;15.82;10.43;;;;;;;17.26;100.00;101290.38;5127211;28;20070;-78
2021/07/22 04:31:31;;;;;;;17.05;10.63;;;;;;;17.23;100.00;101298.47;5127349;29;20053;-78
2021/07/22 04:34:02;;;;;;;13.52;9.75;;;;;;;17.36;100.00;101292.53;5128933;29;20027;-76
2021/07/22 04:36:32;;;;;;;16.23;10.15;;;;;;;17.45;100.00;101292.03;5128794;28;20030;-76
2021/07/22 04:39:02;;;;;;;14.40;9.77;;;;;;;17.65;100.00;101294.47;5132820;28;20490;-75
2021/07/22 04:41:32;;;;;;;18.50;10.85;;;;;;;17.58;100.00;101293.09;5132445;28;20271;-77
2021/07/22 04:44:03;;;;;;;16.02;9.98;;;;;;;17.70;100.00;101294.22;5128781;28;20027;-78
2021/07/22 04:46:33;;;;;;;14.50;10.07;;;;;;;17.93;100.00;101301.78;5132242;28;20181;-78
2021/07/22 04:49:03;;;;;;;14.90;10.33;;;;;;;18.27;100.00;101293.69;5131050;28;20062;-78
2021/07/22 04:51:34;;;;;;;16.67;9.77;;;;;;;18.27;100.00;101299.00;5127971;28;20298;-78
2021/07/22 04:54:04;;;;;;;14.98;10.38;;;;;;;18.32;100.00;101302.28;5127878;28;20506;-79
2021/07/22 04:56:34;;;;;;;16.93;10.20;;;;;;;18.24;100.00;101310.63;5131064;28;20056;-78
2021/07/22 04:59:04;;;;;;;15.27;10.30;;;;;;;18.20;100.00;101292.34;5129627;28;20285;-79
2021/07/22 05:01:35;;;;;;;15.13;10.17;;;;;;;18.43;100.00;101289.28;5132437;28;20027;-78
2021/07/22 05:04:06;;;;;;;16.80;10.88;;;;;;;18.28;100.00;101296.31;5135551;28;20986;-80
2021/07/22 05:06:37;;;;;;;13.75;10.13;;;;;;;18.53;100.00;101285.19;5135482;28;20031;-80
2021/07/22 05:09:07;;;;;;;15.77;11.03;;;;;;;18.55;100.00;101285.97;5138025;28;20561;-79
2021/07/22 05:11:37;;;;;;;18.13;11.30;;;;;;;18.79;100.00;101290.72;5134286;28;20649;-78
2021/07/22 05:14:07;;;;;;;13.87;9.97;;;;;;;19.17;100.00;101287.56;5140419;28;20277;-79
2021/07/22 05:16:38;;;;;;;15.23;10.00;;;;;;;19.52;100.00;101288.94;5134551;28;20283;-76
2021/07/22 05:19:10;;;;;;;13.47;9.97;;;;;;;19.88;97.75;101289.31;5131487;28;20521;-80
2021/07/22 05:21:40;;;;;;;17.35;10.05;;;;;;;19.95;94.90;101289.78;5125912;28;20406;-80
2021/07/22 05:24:11;;;;;;;12.75;9.48;;;;;;;19.93;95.36;101289.03;5121656;29;20418;-79
2021/07/22 05:26:41;;;;;;;16.98;10.10;;;;;;;19.73;95.78;101298.22;5125326;28;20125;-78
2021/07/22 05:29:12;;;;;;;15.98;10.05;;;;;;;19.69;95.50;101299.38;5126145;28;20031;-77
2021/07/22 05:31:43;;;;;;;15.20;10.50;;;;;;;19.53;96.94;101297.72;5124543;29;20078;-77
2021/07/22 05:34:13;;;;;;;14.50;10.15;;;;;;;19.62;95.84;101292.72;5131252;28;20022;-78
2021/07/22 05:36:44;;;;;;;15.20;10.40;;;;;;;19.69;96.12;101296.72;5132396;28;20087;-79
2021/07/22 05:39:14;;;;;;;18.07;10.37;;;;;;;19.74;94.67;101297.28;5135626;28;20030;-79
2021/07/22 05:41:44;;;;;;;16.08;10.93;;;;;;;19.66;94.76;101291.59;5128384;28;20295;-78
2021/07/22 05:44:14;;;;;;;16.83;10.43;;;;;;;19.64;95.24;101296.13;5132873;28;20328;-78
2021/07/22 05:46:45;;;;;;;20.08;10.60;;;;;;;19.45;95.59;101306.16;5124506;28;20220;-77
2021/07/22 05:49:15;;;;;;;13.97;10.53;;;;;;;19.18;97.81;101302.50;5124028;28;20023;-77
2021/07/22 05:51:45;;;;;;;16.10;10.70;;;;;;;19.16;98.48;101298.22;5124261;29;20282;-79
2021/07/22 05:54:15;;;;;;;17.83;11.07;;;;;;;19.39;96.56;101303.00;5126086;28;20035;-80
2021/07/22 05:56:46;;;;;;;14.40;10.27;;;;;;;19.37;99.06;101302.25;5128681;29;20373;-79
2021/07/22 05:59:16;;;;;;;16.57;11.13;;;;;;;19.46;97.60;101302.56;5128163;28;20642;-77
2021/07/22 06:01:46;;;;;;;17.00;11.13;;;;;;;19.29;99.59;101299.22;5127968;29;20283;-78
2021/07/22 06:04:16;;;;;;;17.47;11.13;;;;;;;19.23;99.63;101295.13;5129805;28;20278;-80
2021/07/22 06:06:47;;;;;;;16.93;11.47;;;;;;;18.88;100.00;101304.28;5128817;29;20374;-78
2021/07/22 06:09:17;;;;;;;18.83;11.03;;;;;;;18.75;100.00;101294.47;5134326;28;20284;-79
2021/07/22 06:11:47;;;;;;;17.67;11.57;;;;;;;18.60;100.00;101291.84;5129339;28;20737;-78
2021/07/22 06:14:17;;;;;;;16.30;11.45;;;;;;;18.71;100.00;101286.78;5134453;28;20274;-80
2021/07/22 06:16:48;;;;;;;20.83;11.47;;;;;;;18.69;100.00;101297.47;5132095;28;20059;-79
2021/07/22 06:19:18;;;;;;;17.13;11.53;;;;;;;18.71;100.00;101294.75;5130171;28;20639;-79
2021/07/22 06:21:48;;;;;;;14.70;10.83;;;;;;;18.89;100.00;101295.38;5127753;28;20498;-80
2021/07/22 06:24:18;;;;;;;17.17;11.48;;;;;;;18.87;100.00;101293.75;5128375;29;20293;-80
2021/07/22 06:26:49;;;;;;;14.60;10.82;;;;;;;18.78;100.00;101289.84;5128495;29;20027;-79
2021/07/22 06:29:19;;;;;;;24.42;11.77;;;;;;;18.83;100.00;101289.56;5128116;28;20474;-78
2021/07/22 06:31:49;;;;;;;20.23;11.25;;;;;;;18.93;100.00;101290.75;5127831;29;20038;-77
2021/07/22 06:34:19;;;;;;;18.77;11.20;;;;;;;18.97;100.00;101290.47;5129657;28;20057;-79
2021/07/22 06:36:50;;;;;;;20.10;10.83;;;;;;;18.94;100.00;101289.81;5127959;29;20039;-77
2021/07/22 06:39:20;;;;;;;18.00;10.90;;;;;;;18.94;100.00;101292.47;5136823;28;20278;-80
2021/07/22 06:41:57;;;;;;;14.98;10.55;;;;;;;18.90;100.00;101291.78;5133759;28;20435;-78
2021/07/22 06:44:28;;;;;;;22.90;11.50;;;;;;;18.77;100.00;101290.78;5133153;28;20029;-78
2021/07/22 06:46:59;;;;;;;25.35;10.93;;;;;;;19.04;100.00;101291.84;5130670;28;20035;-78
2021/07/22 06:49:30;;;;;;;21.40;11.40;;;;;;;19.17;100.00;101292.00;5128800;28;20035;-77
2021/07/22 06:52:00;;;;;;;17.80;11.00;;;;;;;19.32;100.00;101299.91;5122677;28;20049;-78
2021/07/22 06:54:30;;;;;;;20.15;11.00;;;;;;;19.12;100.00;101299.34;5127970;29;20039;-78
2021/07/22 06:57:00;;;;;;;20.03;11.30;;;;;;;19.11;100.00;101301.13;5127186;29;20031;-78
2021/07/22 06:59:31;;;;;;;18.40;10.95;;;;;;;19.10;100.00;101303.88;5128098;28;20291;-78
2021/07/22 07:02:01;;;;;;;15.30;10.88;;;;;;;19.17;100.00;101294.63;5127046;28;20082;-77
2021/07/22 07:04:31;;;;;;;14.80;10.80;;;;;;;19.60;100.00;101294.63;5126985;29;20541;-77
2021/07/22 07:07:02;;;;;;;16.60;11.07;;;;;;;19.74;100.00;101297.28;5126372;28;20031;-80
2021/07/22 07:09:32;;;;;;;18.90;11.30;;;;;;;19.43;100.00;101294.78;5134677;28;20039;-78
2021/07/22 07:12:03;;;;;;;19.83;11.63;;;;;;;19.51;100.00;101297.84;5131854;28;20046;-79
2021/07/22 07:14:33;;;;;;;15.75;10.43;;;;;;;19.80;100.00;101304.00;5133755;28;20326;-78
2021/07/22 07:17:04;;;;;;;17.77;11.33;;;;;;;19.66;100.00;101298.69;5131849;28;20465;-78
2021/07/22 07:19:34;;;;;;;17.38;10.50;;;;;;;19.59;100.00;101305.34;5127982;28;20270;-78
2021/07/22 07:22:04;;;;;;;14.32;10.07;;;;;;;19.99;100.00;101294.78;5127713;29;20023;-80
2021/07/22 07:24:34;;;;;;;19.88;11.50;;;;;;;19.72;100.00;101303.63;5124334;29;20034;-78
2021/07/22 07:27:05;;;;;;;21.02;11.30;;;;;;;19.77;100.00;101301.56;5122389;28;20564;-78
2021/07/22 07:29:36;;;;;;;15.73;10.57;;;;;;;19.88;100.00;101304.38;5122637;28;20075;-78
2021/07/22 07:32:06;;;;;;;16.63;10.53;;;;;;;20.00;99.51;101303.63;5122608;28;20023;-78
2021/07/22 07:34:36;;;;;;;14.52;9.98;;;;;;;20.14;99.48;101301.00;5123345;28;20281;-78
2021/07/22 07:37:08;;;;;;;17.33;11.13;;;;;;;20.34;97.09;101304.09;5123625;28;20066;-78
2021/07/22 07:39:38;;;;;;;15.73;10.82;;;;;;;20.45;95.86;101298.09;5130269;28;20333;-78
2021/07/22 07:42:08;;;;;;;19.48;11.20;;;;;;;20.62;94.66;101298.69;5125765;28;20434;-78
2021/07/22 07:44:39;;;;;;;16.25;10.48;;;;;;;20.61;95.00;101304.13;5128807;28;20041;-77
2021/07/22 07:47:09;;;;;;;16.88;10.77;;;;;;;20.85;95.02;101306.88;5129228;28;20513;-77
2021/07/22 07:49:39;;;;;;;18.45;11.70;;;;;;;20.82;94.34;101296.44;5128367;28;20035;-78
2021/07/22 07:52:10;;;;;;;19.40;11.25;;;;;;;20.87;93.68;101309.44;5124360;28;20050;-78
2021/07/22 07:54:40;;;;;;;16.27;11.25;;;;;;;20.81;92.90;101305.34;5128273;28;20042;-78
2021/07/22 07:57:10;;;;;;;16.85;11.55;;;;;;;21.08;92.18;101302.69;5124730;28;20031;-78
2021/07/22 07:59:42;;;;;;;23.07;12.53;;;;;;;20.95;91.04;101301.81;5130760;28;20490;-78
2021/07/22 08:02:16;;;;;;;17.52;11.25;;;;;;;20.81;94.68;101304.50;5127132;28;20816;-78
2021/07/22 08:04:46;;;;;;;19.02;11.00;;;;;;;20.74;95.23;101308.50;5123466;28;20122;-78
2021/07/22 08:07:17;;;;;;;18.13;11.75;;;;;;;20.67;93.43;101307.19;5122214;29;20450;-78
2021/07/22 08:09:47;;;;;;;20.27;12.57;;;;;;;20.92;92.82;101310.00;5129539;28;20031;-78
2021/07/22 08:12:18;;;;;;;22.08;12.45;;;;;;;20.96;91.12;101304.38;5126897;28;20270;-78
2021/07/22 08:14:48;;;;;;;22.30;12.60;;;;;;;21.51;91.55;101305.00;5129638;28;20034;-78
2021/07/22 08:17:21;;;;;;;16.97;11.77;;;;;;;21.24;91.68;101303.38;5125417;28;20430;-78
2021/07/22 08:19:53;;;;;;;16.35;11.52;;;;;;;21.56;90.94;101304.69;5126903;28;20271;-80
2021/07/22 08:22:25;;;;;;;19.40;12.75;;;;;;;21.23;88.98;101293.69;5124187;28;20051;-79
2021/07/22 08:24:55;;;;;;;16.95;11.45;;;;;;;21.35;90.60;101287.50;5127041;28;20039;-79
2021/07/22 08:27:26;;;;;;;17.58;12.55;;;;;;;21.07;90.59;101298.34;5125444;28;20359;-80
2021/07/22 08:29:57;;;;;;;23.10;13.20;;;;;;;21.33;90.04;101298.28;5124292;28;20039;-78
2021/07/22 08:32:27;;;;;;;20.33;13.18;;;;;;;21.18;89.77;101301.97;5123708;28;20557;-79
2021/07/22 08:34:58;;;;;;;20.40;13.68;;;;;;;21.02;91.55;101292.44;5123606;29;20027;-80
2021/07/22 08:37:28;;;;;;;22.25;12.82;;;;;;;21.60;90.27;101292.84;5124708;28;20026;-79
2021/07/22 08:40:02;;;;;;;19.98;13.07;;;;;;;21.46;90.60;101284.97;5127871;28;20019;-80
2021/07/22 08:42:35;;;;;;;22.17;13.30;;;;;;;21.28;91.67;101289.78;5125117;28;20046;-80
2021/07/22 08:45:06;;;;;;;35.38;14.98;;;;;;;21.11;91.82;101295.38;5131640;28;20041;-78
2021/07/22 08:47:37;;;;;;;28.92;15.07;;;;;;;21.25;92.85;101289.94;5126366;28;20296;-80
2021/07/22 08:50:09;;;;;;;27.55;16.33;;;;;;;21.37;90.38;101288.28;5126155;28;20042;-79
2021/07/22 08:52:40;;;;;;;26.63;15.70;;;;;;;21.37;90.45;101289.13;5128694;28;20031;-80
2021/07/22 08:55:11;;;;;;;27.65;15.85;;;;;;;21.18;88.32;101293.13;5126535;28;20460;-78
2021/07/22 08:57:42;;;;;;;26.02;15.38;;;;;;;21.10;90.95;101293.66;5125085;28;20597;-79
2021/07/22 09:00:15;;;;;;;20.73;13.73;;;;;;;21.25;91.10;101300.59;5126451;28;20493;-79
2021/07/22 09:02:45;;;;;;;27.13;14.73;;;;;;;21.18;90.08;101293.13;5126522;28;20035;-80
2021/07/22 09:05:16;;;;;;;26.03;14.83;;;;;;;21.09;92.10;101296.44;5123837;29;20062;-79
2021/07/22 09:07:46;;;;;;;16.73;11.88;;;;;;;21.56;91.00;101294.03;5125202;28;20279;-80
2021/07/22 09:10:18;;;;;;;22.03;13.17;;;;;;;21.59;90.08;101288.50;5132584;28;20030;-79
2021/07/22 09:12:51;;;;;;;19.38;12.95;;;;;;;21.68;90.13;101290.53;5126548;28;20294;-80
2021/07/22 09:15:26;;;;;;;22.27;13.40;;;;;;;21.51;90.19;101297.00;5130832;28;20097;-78
2021/07/22 09:17:57;;;;;;;20.92;13.48;;;;;;;21.25;89.81;101291.78;5124181;28;20453;-80
2021/07/22 09:20:30;;;;;;;17.88;11.98;;;;;;;21.53;89.58;101292.44;5124578;28;20107;-78
2021/07/22 09:23:03;;;;;;;20.38;12.82;;;;;;;21.61;88.14;101292.72;5125896;28;20153;-80
2021/07/22 09:25:45;;;;;;;18.70;12.98;;;;;;;21.72;88.52;101287.56;5126623;28;20027;-80
2021/07/22 09:28:23;;;;;;;20.42;12.82;;;;;;;21.71;87.22;101291.19;5123434;28;20107;-79
2021/07/22 09:31:01;;;;;;;15.63;11.15;;;;;;;21.86;88.48;101297.22;5123325;28;20031;-77
2021/07/22 09:33:43;;;;;;;20.23;12.80;;;;;;;21.69;85.43;101298.44;5125236;29;20023;-80
2021/07/22 09:36:19;;;;;;;18.98;12.57;;;;;;;21.66;86.46;101300.44;5123195;29;20033;-78
2021/07/22 09:38:49;;;;;;;18.63;12.02;;;;;;;21.75;85.04;101294.50;5129427;28;20110;-75
2021/07/22 09:41:24;;;;;;;17.38;11.93;;;;;;;22.20;82.29;101285.88;5130291;28;20077;-78
2021/07/22 09:43:54;;;;;;;18.43;11.90;;;;;;;22.59;83.81;101291.03;5129118;28;20031;-78
2021/07/22 09:46:40;;;;;;;19.07;12.40;;;;;;;22.06;86.87;101300.19;5131092;28;20023;-79
2021/07/22 09:49:11;;;;;;;20.35;13.38;;;;;;;22.13;84.82;101298.81;5127256;28;20274;-80
2021/07/22 09:51:41;;;;;;;19.70;12.98;;;;;;;22.01;85.94;101293.47;5129455;28;20375;-80
2021/07/22 09:54:12;;;;;;;17.88;12.85;;;;;;;22.66;82.09;101292.25;5124231;28;20037;-80
2021/07/22 09:56:43;;;;;;;18.77;12.85;;;;;;;22.41;82.61;101292.38;5124710;28;20031;-78
2021/07/22 09:59:13;;;;;;;21.45;13.50;;;;;;;22.50;81.57;101284.56;5123676;28;20024;-79
2021/07/22 10:01:46;;;;;;;20.10;13.27;;;;;;;22.79;83.75;101281.44;5123615;29;20027;-80
2021/07/22 10:04:20;;;;;;;22.95;13.30;;;;;;;22.35;84.21;101284.78;5123543;29;20035;-79
2021/07/22 10:06:51;;;;;;;17.73;12.20;;;;;;;22.32;86.06;101287.66;5124675;29;20031;-80
2021/07/22 10:09:25;;;;;;;16.98;12.32;;;;;;;22.15;88.16;101293.34;5131552;28;20019;-77
2021/07/22 10:11:56;;;;;;;17.00;12.30;;;;;;;22.30;88.47;101286.94;5128832;28;20490;-77
2021/07/22 10:14:28;;;;;;;23.92;11.68;;;;;;;22.51;86.55;101285.38;5132399;28;20035;-80
2021/07/22 10:17:03;;;;;;;17.73;12.43;;;;;;;22.14;85.26;101287.19;5127846;28;20047;-80
2021/07/22 10:19:36;;;;;;;15.65;11.38;;;;;;;22.09;86.60;101284.00;5123740;28;20083;-80
2021/07/22 10:22:07;;;;;;;18.95;11.65;;;;;;;21.99;89.44;101280.28;5124161;28;20401;-79
2021/07/22 10:24:38;;;;;;;19.23;12.35;;;;;;;22.26;87.35;101280.13;5123788;29;20039;-80
2021/07/22 10:27:08;;;;;;;21.02;12.50;;;;;;;22.23;87.08;101280.34;5125606;28;20035;-80
2021/07/22 10:29:39;;;;;;;18.42;13.00;;;;;;;22.07;89.03;101277.94;5123663;28;20027;-78
2021/07/22 10:32:10;;;;;;;18.50;12.90;;;;;;;21.76;87.68;101277.56;5124380;29;20506;-80
2021/07/22 10:34:40;;;;;;;19.05;11.75;;;;;;;21.85;90.31;101272.44;5123654;29;20090;-77
2021/07/22 10:37:16;;;;;;;20.05;12.60;;;;;;;22.13;89.14;101271.31;5125151;28;20024;-80
2021/07/22 10:40:07;;;;;;;20.85;12.45;;;;;;;21.91;88.83;101269.31;5128819;28;20039;-80
2021/07/22 10:42:47;;;;;;;19.60;12.95;;;;;;;21.70;88.76;101259.34;5127046;28;20126;-76
2021/07/22 10:45:18;;;;;;;19.65;12.40;;;;;;;21.62;91.25;101272.31;5137428;28;20031;-80
2021/07/22 10:48:05;;;;;;;19.43;12.33;;;;;;;21.94;90.41;101260.28;5129233;28;20487;-80
2021/07/22 10:50:47;;;;;;;18.38;11.45;;;;;;;22.06;89.03;101262.06;5127377;29;20303;-80
2021/07/22 10:53:41;;;;;;;18.45;13.20;;;;;;;22.13;87.47;101260.66;5123749;28;20586;-79
2021/07/22 10:56:16;;;;;;;17.63;12.90;;;;;;;22.11;89.07;101267.91;5127490;29;20560;-78
2021/07/22 10:58:47;;;;;;;17.40;13.32;;;;;;;21.99;88.91;101252.81;5127481;29;20046;-80
2021/07/22 11:01:42;;;;;;;20.33;12.77;;;;;;;22.02;88.04;101255.25;5126577;28;20023;-78
2021/07/22 11:04:21;;;;;;;16.95;12.10;;;;;;;22.40;87.89;101250.72;5133616;28;20050;-80
2021/07/22 11:06:57;;;;;;;21.65;13.13;;;;;;;22.75;85.11;101239.09;5130182;28;20027;-79
2021/07/22 11:09:47;;;;;;;18.42;13.30;;;;;;;22.58;86.65;101249.34;5137443;28;20022;-80
2021/07/22 11:12:32;;;;;;;20.65;14.32;;;;;;;22.84;84.23;101243.75;5131120;28;20035;-78
2021/07/22 11:15:29;;;;;;;22.40;12.97;;;;;;;22.70;84.91;101238.63;5126965;28;20118;-80
2021/07/22 11:17:59;;;;;;;23.48;14.85;;;;;;;22.79;84.49;101241.44;5124687;28;20035;-78
2021/07/22 11:20:32;;;;;;;20.27;13.98;;;;;;;22.92;83.01;101244.88;5126877;28;20039;-79
2021/07/22 11:23:13;;;;;;;24.13;14.55;;;;;;;22.98;83.92;101240.91;5125401;29;20058;-79
2021/07/22 11:25:45;;;;;;;23.35;14.57;;;;;;;22.82;82.90;101245.69;5123449;28;20114;-78